createdAt,value
2017-10-27T00:02:04.368Z,9.53
2017-10-27T00:04:32.613Z,8.43
2017-10-27T00:07:00.101Z,8.57
2017-10-27T00:09:27.631Z,8.30
2017-10-27T00:11:55.119Z,7.93
2017-10-27T00:14:22.643Z,8.20
2017-10-27T00:16:50.158Z,8.43
2017-10-27T00:19:17.652Z,8.13
2017-10-27T00:21:45.141Z,7.83
2017-10-27T00:24:13.495Z,8.17
2017-10-27T00:26:40.979Z,7.53
2017-10-27T00:29:08.453Z,6.57
2017-10-27T00:31:35.914Z,8.30
2017-10-27T00:34:03.417Z,7.30
2017-10-27T00:36:31.021Z,5.90
2017-10-27T00:38:58.537Z,6.30
2017-10-27T00:41:26.008Z,6.87
2017-10-27T00:43:54.269Z,6.50
2017-10-27T00:46:21.734Z,6.30
2017-10-27T00:48:50.000Z,5.53
2017-10-27T00:51:19.002Z,5.73
2017-10-27T00:53:47.274Z,6.73
2017-10-27T00:56:15.550Z,5.28
2017-10-27T00:58:43.131Z,5.10
2017-10-27T01:01:11.386Z,5.30
2017-10-27T01:03:38.939Z,5.37
2017-10-27T01:06:06.425Z,5.10
2017-10-27T01:08:34.012Z,5.03
2017-10-27T01:11:01.510Z,4.53
2017-10-27T01:13:29.002Z,4.78
2017-10-27T01:15:56.495Z,5.55
2017-10-27T01:18:23.990Z,5.45
2017-10-27T01:20:51.463Z,4.27
2017-10-27T01:23:19.701Z,4.50
2017-10-27T01:25:47.198Z,4.53
2017-10-27T01:28:15.464Z,4.20
2017-10-27T01:30:43.747Z,5.03
2017-10-27T01:33:12.013Z,4.00
2017-10-27T01:35:39.485Z,3.75
2017-10-27T01:38:06.963Z,5.25
2017-10-27T01:40:34.495Z,3.20
2017-10-27T01:43:02.002Z,4.07
2017-10-27T01:45:29.514Z,3.65
2017-10-27T01:47:56.995Z,3.70
2017-10-27T01:50:24.489Z,3.45
2017-10-27T01:52:51.959Z,4.35
2017-10-27T01:55:19.439Z,3.47
2017-10-27T01:57:47.693Z,3.90
2017-10-27T02:00:15.169Z,4.15
2017-10-27T02:02:43.427Z,3.92
2017-10-27T02:05:10.902Z,4.05
2017-10-27T02:07:38.438Z,4.60
2017-10-27T02:10:05.919Z,3.87
2017-10-27T02:12:34.174Z,4.35
2017-10-27T02:15:01.650Z,3.30
2017-10-27T02:17:29.129Z,4.20
2017-10-27T02:19:56.613Z,3.45
2017-10-27T02:22:24.098Z,4.55
2017-10-27T02:24:51.589Z,3.40
2017-10-27T02:27:19.073Z,3.15
2017-10-27T02:29:46.597Z,3.60
2017-10-27T02:32:14.134Z,3.58
2017-10-27T02:34:41.607Z,3.85
2017-10-27T02:37:09.924Z,3.28
2017-10-27T02:39:37.483Z,3.83
2017-10-27T02:42:04.998Z,3.10
2017-10-27T02:44:33.238Z,3.78
2017-10-27T02:47:00.831Z,3.62
2017-10-27T02:49:29.065Z,3.92
2017-10-27T02:51:56.535Z,2.80
2017-10-27T02:54:24.010Z,3.22
2017-10-27T02:56:51.488Z,3.65
2017-10-27T02:59:18.995Z,3.00
2017-10-27T03:01:46.463Z,3.05
2017-10-27T03:04:14.046Z,2.40
2017-10-27T03:06:42.322Z,3.15
2017-10-27T03:09:10.599Z,3.37
2017-10-27T03:11:38.850Z,2.92
2017-10-27T03:14:06.330Z,2.65
2017-10-27T03:16:34.575Z,2.92
2017-10-27T03:19:02.053Z,2.65
2017-10-27T03:21:30.298Z,3.12
2017-10-27T03:23:57.778Z,3.30
2017-10-27T03:26:25.351Z,2.72
2017-10-27T03:28:53.619Z,3.62
2017-10-27T03:31:21.094Z,3.33
2017-10-27T03:33:49.350Z,2.60
2017-10-27T03:36:16.817Z,3.22
2017-10-27T03:38:45.090Z,2.05
2017-10-27T03:41:13.371Z,2.83
2017-10-27T03:43:41.601Z,2.42
2017-10-27T03:46:09.078Z,2.40
2017-10-27T03:48:37.318Z,2.45
2017-10-27T03:51:04.866Z,2.08
2017-10-27T03:53:32.351Z,2.90
2017-10-27T03:55:59.841Z,2.15
2017-10-27T03:58:27.313Z,2.40
2017-10-27T04:00:55.565Z,2.53
2017-10-27T04:03:23.135Z,2.10
2017-10-27T04:05:50.687Z,1.90
2017-10-27T04:08:18.154Z,2.33
2017-10-27T04:10:46.386Z,2.20
2017-10-27T04:13:14.380Z,2.55
2017-10-27T04:15:41.854Z,2.47
2017-10-27T04:18:10.084Z,2.30
2017-10-27T04:20:37.700Z,1.87
2017-10-27T04:23:05.939Z,1.90
2017-10-27T04:25:33.406Z,2.30
2017-10-27T04:28:00.945Z,2.15
2017-10-27T04:30:28.422Z,2.00
2017-10-27T04:32:55.996Z,2.72
2017-10-27T04:35:24.242Z,2.15
2017-10-27T04:37:51.714Z,2.55
2017-10-27T04:40:19.196Z,2.30
2017-10-27T04:42:47.454Z,2.55
2017-10-27T04:45:15.008Z,2.20
2017-10-27T04:47:42.485Z,2.70
2017-10-27T04:50:10.746Z,2.70
2017-10-27T04:52:38.994Z,2.90
2017-10-27T04:55:06.454Z,2.70
2017-10-27T04:57:34.042Z,4.28
2017-10-27T05:00:02.288Z,3.55
2017-10-27T05:02:29.759Z,3.90
2017-10-27T05:04:57.230Z,3.75
2017-10-27T05:07:25.465Z,3.85
2017-10-27T05:09:52.939Z,2.80
2017-10-27T05:12:20.507Z,3.67
2017-10-27T05:14:47.973Z,3.15
2017-10-27T05:17:21.119Z,2.65
2017-10-27T05:19:54.272Z,3.70
2017-10-27T05:22:28.170Z,2.62
2017-10-27T05:24:56.401Z,3.10
2017-10-27T05:27:23.880Z,3.05
2017-10-27T05:29:51.445Z,3.42
2017-10-27T05:32:18.911Z,2.97
2017-10-27T05:34:47.149Z,3.37
2017-10-27T05:37:14.616Z,4.87
2017-10-27T05:39:42.193Z,2.45
2017-10-27T05:42:09.662Z,3.35
2017-10-27T05:44:37.910Z,3.12
2017-10-27T05:47:05.382Z,3.20
2017-10-27T05:49:33.630Z,2.95
2017-10-27T05:52:01.099Z,3.58
2017-10-27T05:54:28.579Z,3.45
2017-10-27T05:56:56.123Z,2.80
2017-10-27T05:59:23.696Z,2.97
2017-10-27T06:01:51.157Z,2.60
2017-10-27T06:04:19.398Z,2.90
2017-10-27T06:06:46.883Z,2.65
2017-10-27T06:09:15.146Z,2.90
2017-10-27T06:11:42.615Z,2.60
2017-10-27T06:14:10.094Z,3.30
2017-10-27T06:16:37.554Z,2.90
2017-10-27T06:19:05.038Z,3.45
2017-10-27T06:21:32.539Z,3.03
2017-10-27T06:24:00.015Z,3.28
2017-10-27T06:26:28.254Z,2.90
2017-10-27T06:28:55.727Z,2.78
2017-10-27T06:31:23.232Z,3.00
2017-10-27T06:33:50.795Z,2.75
2017-10-27T06:36:18.301Z,2.80
2017-10-27T06:38:45.765Z,4.15
2017-10-27T06:41:14.007Z,3.03
2017-10-27T06:43:41.466Z,2.65
2017-10-27T06:46:08.946Z,2.17
2017-10-27T06:48:36.502Z,2.87
2017-10-27T06:51:03.981Z,2.80
2017-10-27T06:53:32.215Z,2.30
2017-10-27T06:55:59.718Z,3.25
2017-10-27T06:58:27.950Z,2.20
2017-10-27T07:00:55.439Z,2.33
2017-10-27T07:03:23.702Z,1.98
2017-10-27T07:05:51.182Z,1.92
2017-10-27T07:08:19.431Z,1.98
2017-10-27T07:10:47.021Z,1.80
2017-10-27T07:13:15.258Z,2.17
2017-10-27T07:15:42.732Z,1.73
2017-10-27T07:18:11.113Z,2.25
2017-10-27T07:20:38.591Z,2.42
2017-10-27T07:23:06.065Z,2.75
2017-10-27T07:25:33.535Z,1.95
2017-10-27T07:28:01.021Z,1.83
2017-10-27T07:30:28.493Z,2.53
2017-10-27T07:32:56.740Z,2.05
2017-10-27T07:35:24.226Z,1.90
2017-10-27T07:37:52.473Z,2.83
2017-10-27T07:40:19.956Z,2.25
2017-10-27T07:42:48.230Z,2.90
2017-10-27T07:45:16.477Z,1.75
2017-10-27T07:47:43.962Z,2.35
2017-10-27T07:50:12.198Z,2.10
2017-10-27T07:52:39.794Z,1.80
2017-10-27T07:55:07.351Z,2.67
2017-10-27T07:57:34.814Z,1.90
2017-10-27T08:00:03.095Z,2.30
2017-10-27T08:02:31.455Z,1.70
2017-10-27T08:04:59.121Z,1.75
2017-10-27T08:07:26.726Z,1.90
2017-10-27T08:09:54.332Z,1.58
2017-10-27T08:12:21.806Z,2.70
2017-10-27T08:14:50.057Z,1.80
2017-10-27T08:17:17.545Z,1.90
2017-10-27T08:19:45.805Z,1.77
2017-10-27T08:22:13.370Z,1.50
2017-10-27T08:24:40.838Z,2.92
2017-10-27T08:27:09.149Z,1.62
2017-10-27T08:29:36.662Z,1.70
2017-10-27T08:32:04.896Z,1.70
2017-10-27T08:34:32.445Z,1.45
2017-10-27T08:36:59.915Z,1.52
2017-10-27T08:39:27.570Z,1.80
2017-10-27T08:41:55.038Z,1.60
2017-10-27T08:44:22.516Z,1.33
2017-10-27T08:46:49.993Z,2.15
2017-10-27T08:49:18.245Z,1.85
2017-10-27T08:51:45.721Z,1.70
2017-10-27T08:54:13.977Z,1.62
2017-10-27T08:56:41.463Z,1.25
2017-10-27T08:59:09.702Z,2.17
2017-10-27T09:01:37.190Z,1.95
2017-10-27T09:04:05.447Z,1.85
2017-10-27T09:06:32.927Z,1.60
2017-10-27T09:09:01.793Z,1.98
2017-10-27T09:11:30.044Z,1.65
2017-10-27T09:13:57.522Z,1.62
2017-10-27T09:16:25.014Z,1.77
2017-10-27T09:18:52.496Z,2.00
2017-10-27T09:21:19.974Z,1.27
2017-10-27T09:23:47.454Z,1.70
2017-10-27T09:26:15.743Z,1.52
2017-10-27T09:28:43.994Z,2.65
2017-10-27T09:31:12.221Z,1.27
2017-10-27T09:33:39.698Z,1.80
2017-10-27T09:36:07.167Z,1.50
2017-10-27T09:38:34.658Z,2.25
2017-10-27T09:41:02.909Z,1.87
2017-10-27T09:43:30.399Z,1.70
2017-10-27T09:45:57.875Z,1.77
2017-10-27T09:48:25.354Z,1.23
2017-10-27T09:50:52.825Z,2.12
2017-10-27T09:53:20.309Z,1.40
2017-10-27T09:55:47.776Z,1.73
2017-10-27T09:58:16.037Z,1.10
2017-10-27T10:00:43.519Z,1.40
2017-10-27T10:03:11.026Z,1.70
2017-10-27T10:05:38.514Z,1.62
2017-10-27T10:08:06.762Z,1.08
2017-10-27T10:10:34.259Z,1.15
2017-10-27T10:13:02.534Z,1.80
2017-10-27T10:15:30.034Z,1.23
2017-10-27T10:17:57.537Z,1.73
2017-10-27T10:20:25.012Z,1.30
2017-10-27T10:22:53.281Z,1.55
2017-10-27T10:25:20.841Z,1.10
2017-10-27T10:27:49.103Z,1.30
2017-10-27T10:30:17.378Z,1.37
2017-10-27T10:32:44.961Z,1.15
2017-10-27T10:35:13.216Z,1.70
2017-10-27T10:37:41.463Z,1.62
2017-10-27T10:40:08.969Z,1.20
2017-10-27T10:42:37.212Z,1.67
2017-10-27T10:45:04.691Z,1.30
2017-10-27T10:47:32.942Z,1.23
2017-10-27T10:50:00.409Z,2.12
2017-10-27T10:52:28.658Z,1.58
2017-10-27T10:54:56.125Z,1.15
2017-10-27T10:57:23.606Z,1.70
2017-10-27T10:59:51.849Z,1.50
2017-10-27T11:02:19.327Z,1.25
2017-10-27T11:04:46.801Z,1.52
2017-10-27T11:07:15.045Z,1.23
2017-10-27T11:09:42.614Z,1.25
2017-10-27T11:12:11.618Z,1.02
2017-10-27T11:14:39.886Z,1.70
2017-10-27T11:17:07.501Z,1.42
2017-10-27T11:19:34.971Z,2.85
2017-10-27T11:22:02.458Z,1.40
2017-10-27T11:24:30.085Z,1.33
2017-10-27T11:26:57.566Z,1.85
2017-10-27T11:29:25.089Z,1.50
2017-10-27T11:31:52.591Z,1.50
2017-10-27T11:34:20.062Z,1.37
2017-10-27T11:36:48.424Z,1.47
2017-10-27T11:39:15.987Z,1.98
2017-10-27T11:41:43.555Z,1.00
2017-10-27T11:44:11.794Z,1.50
2017-10-27T11:46:39.270Z,1.77
2017-10-27T11:49:06.859Z,0.90
2017-10-27T11:51:35.169Z,1.83
2017-10-27T11:54:02.630Z,0.60
2017-10-27T11:56:30.112Z,1.10
2017-10-27T11:58:57.571Z,1.33
2017-10-27T12:01:25.047Z,1.20
2017-10-27T12:03:53.300Z,1.10
2017-10-27T12:06:20.874Z,1.53
2017-10-27T12:08:48.433Z,1.27
2017-10-27T12:11:15.911Z,1.73
2017-10-27T12:13:44.161Z,1.00
2017-10-27T12:16:11.726Z,2.00
2017-10-27T12:18:39.284Z,1.20
2017-10-27T12:21:06.755Z,1.10
2017-10-27T12:23:34.986Z,1.20
2017-10-27T12:26:02.530Z,1.07
2017-10-27T12:28:30.088Z,1.50
2017-10-27T12:30:57.654Z,1.10
2017-10-27T12:33:25.129Z,1.00
2017-10-27T12:35:52.591Z,1.13
2017-10-27T12:38:20.059Z,1.60
2017-10-27T12:40:48.300Z,1.27
2017-10-27T12:43:15.770Z,1.50
2017-10-27T12:45:43.230Z,1.67
2017-10-27T12:48:10.811Z,1.27
2017-10-27T12:50:38.365Z,1.40
2017-10-27T12:53:05.850Z,1.30
2017-10-27T12:55:34.082Z,1.67
2017-10-27T12:58:01.779Z,1.50
2017-10-27T13:00:30.012Z,2.50
2017-10-27T13:02:57.506Z,1.07
2017-10-27T13:05:25.927Z,1.47
2017-10-27T13:07:54.628Z,1.40
2017-10-27T13:10:23.152Z,1.63
2017-10-27T13:12:50.688Z,1.70
2017-10-27T13:15:18.290Z,1.33
2017-10-27T13:17:46.513Z,1.23
2017-10-27T13:20:14.092Z,1.40
2017-10-27T13:22:41.559Z,2.57
2017-10-27T13:25:09.805Z,1.80
2017-10-27T13:27:37.290Z,1.63
2017-10-27T13:30:04.846Z,1.83
2017-10-27T13:32:38.707Z,1.57
2017-10-27T13:35:06.210Z,1.50
2017-10-27T13:37:33.666Z,1.40
2017-10-27T13:40:01.935Z,1.60
2017-10-27T13:42:29.406Z,1.77
2017-10-27T13:44:57.685Z,1.30
2017-10-27T13:47:25.952Z,1.13
2017-10-27T13:49:53.499Z,1.30
2017-10-27T13:52:21.058Z,1.17
2017-10-27T13:54:48.662Z,1.10
2017-10-27T13:57:16.142Z,1.73
2017-10-27T13:59:43.630Z,2.20
2017-10-27T14:02:11.097Z,1.70
2017-10-27T14:04:39.326Z,1.70
2017-10-27T14:07:06.830Z,2.03
2017-10-27T14:09:34.391Z,1.83
2017-10-27T14:12:02.657Z,1.30
2017-10-27T14:14:30.131Z,1.33
2017-10-27T14:16:58.379Z,1.00
2017-10-27T14:19:25.850Z,0.97
2017-10-27T14:21:53.405Z,0.90
2017-10-27T14:24:22.374Z,1.20
2017-10-27T14:26:49.955Z,1.67
2017-10-27T14:29:17.467Z,1.20
2017-10-27T14:31:44.974Z,1.60
2017-10-27T14:34:12.530Z,1.13
2017-10-27T14:36:40.007Z,1.10
2017-10-27T14:39:07.489Z,1.27
2017-10-27T14:41:35.056Z,1.50
2017-10-27T14:44:02.561Z,1.12
2017-10-27T14:46:30.020Z,1.53
2017-10-27T14:48:57.487Z,1.97
2017-10-27T14:51:25.730Z,1.40
2017-10-27T14:53:53.297Z,1.83
2017-10-27T14:56:20.885Z,1.80
2017-10-27T14:58:49.175Z,2.17
2017-10-27T15:01:16.689Z,1.15
2017-10-27T15:03:45.684Z,1.25
2017-10-27T15:06:13.244Z,1.30
2017-10-27T15:08:40.762Z,1.27
2017-10-27T15:11:08.233Z,1.25
2017-10-27T15:13:35.727Z,1.30
2017-10-27T15:16:03.214Z,1.45
2017-10-27T15:18:30.692Z,1.20
2017-10-27T15:20:58.194Z,0.83
2017-10-27T15:23:25.661Z,0.90
2017-10-27T15:25:53.920Z,1.00
2017-10-27T15:28:21.491Z,1.17
2017-10-27T15:30:49.741Z,1.23
2017-10-27T15:33:17.209Z,1.05
2017-10-27T15:35:44.769Z,0.95
2017-10-27T15:38:12.286Z,1.20
2017-10-27T15:40:39.784Z,1.00
2017-10-27T15:43:07.359Z,1.20
2017-10-27T15:45:35.614Z,1.42
2017-10-27T15:48:03.182Z,1.27
2017-10-27T15:50:30.798Z,1.20
2017-10-27T15:52:58.293Z,0.98
2017-10-27T15:55:25.814Z,1.10
2017-10-27T15:57:53.303Z,0.90
2017-10-27T16:00:20.882Z,0.75
2017-10-27T16:02:49.134Z,1.33
2017-10-27T16:05:16.606Z,1.75
2017-10-27T16:07:44.157Z,1.10
2017-10-27T16:10:11.726Z,1.35
2017-10-27T16:12:39.208Z,1.35
2017-10-27T16:15:07.428Z,1.17
2017-10-27T16:17:34.915Z,1.20
2017-10-27T16:20:02.393Z,1.42
2017-10-27T16:22:30.617Z,1.40
2017-10-27T16:24:58.105Z,1.30
2017-10-27T16:27:25.579Z,1.48
2017-10-27T16:29:53.815Z,1.10
2017-10-27T16:32:21.292Z,1.10
2017-10-27T16:34:48.762Z,1.05
2017-10-27T16:37:17.003Z,1.08
2017-10-27T16:39:44.468Z,1.67
2017-10-27T16:42:11.946Z,1.17
2017-10-27T16:44:40.219Z,1.20
2017-10-27T16:47:08.490Z,1.00
2017-10-27T16:49:36.051Z,1.10
2017-10-27T16:52:04.381Z,1.40
2017-10-27T16:54:31.856Z,1.40
2017-10-27T16:56:59.446Z,1.00
2017-10-27T16:59:27.699Z,1.23
2017-10-27T17:01:55.179Z,1.25
2017-10-27T17:04:23.427Z,1.27
2017-10-27T17:06:51.061Z,0.80
2017-10-27T17:09:18.535Z,1.10
2017-10-27T17:11:46.007Z,1.30
2017-10-27T17:14:13.476Z,1.48
2017-10-27T17:16:41.044Z,1.37
2017-10-27T17:19:08.595Z,1.20
2017-10-27T17:21:36.074Z,1.30
2017-10-27T17:24:04.382Z,1.37
2017-10-27T17:26:31.883Z,1.30
2017-10-27T17:29:00.154Z,1.60
2017-10-27T17:31:27.708Z,2.50
2017-10-27T17:33:55.178Z,1.23
2017-10-27T17:36:22.687Z,2.50
2017-10-27T17:38:50.181Z,1.15
2017-10-27T17:41:17.640Z,1.30
2017-10-27T17:43:45.210Z,1.20
2017-10-27T17:46:12.691Z,1.45
2017-10-27T17:48:40.939Z,1.05
2017-10-27T17:51:08.421Z,1.40
2017-10-27T17:53:36.682Z,1.25
2017-10-27T17:56:04.913Z,1.25
2017-10-27T17:58:32.453Z,1.23
2017-10-27T18:00:59.962Z,1.65
2017-10-27T18:03:27.458Z,1.30
2017-10-27T18:05:54.930Z,1.45
2017-10-27T18:08:22.414Z,1.00
2017-10-27T18:10:49.870Z,1.50
2017-10-27T18:13:17.347Z,1.10
2017-10-27T18:15:44.897Z,1.42
2017-10-27T18:18:12.362Z,1.33
2017-10-27T18:20:39.830Z,1.62
2017-10-27T18:23:08.063Z,1.20
2017-10-27T18:25:36.315Z,1.08
2017-10-27T18:28:03.825Z,1.37
2017-10-27T18:30:32.056Z,1.25
2017-10-27T18:32:59.617Z,2.50
2017-10-27T18:35:27.106Z,1.55
2017-10-27T18:37:54.565Z,1.40
2017-10-27T18:40:22.028Z,1.42
2017-10-27T18:42:49.486Z,1.40
2017-10-27T18:45:16.943Z,1.35
2017-10-27T18:47:44.506Z,1.25
2017-10-27T18:50:11.994Z,1.25
2017-10-27T18:52:39.537Z,1.42
2017-10-27T18:55:07.764Z,2.33
2017-10-27T18:57:35.818Z,1.67
2017-10-27T19:00:04.212Z,1.15
2017-10-27T19:02:31.683Z,1.02
2017-10-27T19:04:59.149Z,1.30
2017-10-27T19:07:26.716Z,1.23
2017-10-27T19:09:54.184Z,1.30
2017-10-27T19:12:22.425Z,0.90
2017-10-27T19:14:49.957Z,1.80
2017-10-27T19:17:17.475Z,1.30
2017-10-27T19:19:45.792Z,1.37
2017-10-27T19:22:13.246Z,1.10
2017-10-27T19:24:40.718Z,1.20
2017-10-27T19:27:08.218Z,1.58
2017-10-27T19:29:35.673Z,1.40
2017-10-27T19:32:03.905Z,1.60
2017-10-27T19:34:31.388Z,1.73
2017-10-27T19:36:58.855Z,1.25
2017-10-27T19:39:26.323Z,1.27
2017-10-27T19:41:54.589Z,1.67
2017-10-27T19:44:22.132Z,1.37
2017-10-27T19:46:50.409Z,1.35
2017-10-27T19:49:17.864Z,1.10
2017-10-27T19:51:45.330Z,0.93
2017-10-27T19:54:12.799Z,1.50
2017-10-27T19:56:40.275Z,1.33
2017-10-27T19:59:08.496Z,1.30
2017-10-27T20:01:36.292Z,1.35
2017-10-27T20:04:04.205Z,1.50
2017-10-27T20:06:32.035Z,1.48
2017-10-27T20:09:00.252Z,1.27
2017-10-27T20:11:27.704Z,1.65
2017-10-27T20:13:55.172Z,1.58
2017-10-27T20:16:22.651Z,1.67
2017-10-27T20:18:50.274Z,2.40
2017-10-27T20:21:17.739Z,1.30
2017-10-27T20:23:45.192Z,1.50
2017-10-27T20:26:12.681Z,1.58
2017-10-27T20:28:40.154Z,1.77
2017-10-27T20:31:07.708Z,1.60
2017-10-27T20:33:35.180Z,1.30
2017-10-27T20:36:03.411Z,1.85
2017-10-27T20:38:30.865Z,1.98
2017-10-27T20:40:58.348Z,1.60
2017-10-27T20:43:25.916Z,2.00
2017-10-27T20:45:54.243Z,1.62
2017-10-27T20:48:21.724Z,1.80
2017-10-27T20:50:49.194Z,1.58
2017-10-27T20:53:16.678Z,2.17
2017-10-27T20:55:44.901Z,1.95
2017-10-27T20:58:12.389Z,1.98
2017-10-27T21:00:39.849Z,1.77
2017-10-27T21:03:07.404Z,1.85
2017-10-27T21:05:34.963Z,2.33
2017-10-27T21:08:03.232Z,1.80
2017-10-27T21:10:30.681Z,1.65
2017-10-27T21:12:58.156Z,1.33
2017-10-27T21:15:25.702Z,1.77
2017-10-27T21:17:53.325Z,1.90
2017-10-27T21:20:20.781Z,1.10
2017-10-27T21:22:48.260Z,1.40
2017-10-27T21:25:15.714Z,1.73
2017-10-27T21:27:43.177Z,1.50
2017-10-27T21:30:10.656Z,1.77
2017-10-27T21:32:38.269Z,1.83
2017-10-27T21:35:05.747Z,1.50
2017-10-27T21:37:33.228Z,2.00
2017-10-27T21:40:01.599Z,1.25
2017-10-27T21:42:29.187Z,1.77
2017-10-27T21:44:57.418Z,1.60
2017-10-27T21:47:24.888Z,1.30
2017-10-27T21:49:52.349Z,1.60
2017-10-27T21:52:19.982Z,1.50
2017-10-27T21:54:47.479Z,1.42
2017-10-27T21:57:15.018Z,1.37
2017-10-27T21:59:42.577Z,1.55
2017-10-27T22:02:10.158Z,1.40
2017-10-27T22:04:37.632Z,1.83
2017-10-27T22:07:05.875Z,1.30
2017-10-27T22:09:34.113Z,1.70
2017-10-27T22:12:01.632Z,1.52
2017-10-27T22:14:29.890Z,1.10
2017-10-27T22:16:57.472Z,1.62
2017-10-27T22:19:25.715Z,1.58
2017-10-27T22:21:53.252Z,1.70
2017-10-27T22:24:20.715Z,1.25
2017-10-27T22:26:48.194Z,1.48
2017-10-27T22:29:15.666Z,1.55
2017-10-27T22:31:43.903Z,1.30
2017-10-27T22:34:11.367Z,1.50
2017-10-27T22:36:38.860Z,1.73
2017-10-27T22:39:07.214Z,1.10
2017-10-27T22:41:34.787Z,1.40
2017-10-27T22:44:02.344Z,1.30
2017-10-27T22:46:29.851Z,1.10
2017-10-27T22:48:57.305Z,1.30
2017-10-27T22:51:24.756Z,1.00
2017-10-27T22:53:52.229Z,1.80
2017-10-27T22:56:19.695Z,1.30
2017-10-27T22:58:47.154Z,1.25
2017-10-27T23:01:14.609Z,1.55
2017-10-27T23:03:42.095Z,1.15
2017-10-27T23:06:09.599Z,1.42
2017-10-27T23:08:37.060Z,1.10
2017-10-27T23:11:04.922Z,1.50
2017-10-27T23:13:32.373Z,1.37
2017-10-27T23:15:59.938Z,1.40
2017-10-27T23:18:27.619Z,1.20
2017-10-27T23:20:55.562Z,1.55
2017-10-27T23:23:23.026Z,1.90
2017-10-27T23:25:50.584Z,1.37
2017-10-27T23:28:18.148Z,1.50
2017-10-27T23:30:46.688Z,1.20
2017-10-27T23:33:15.269Z,1.15
2017-10-27T23:35:43.614Z,1.20
2017-10-27T23:38:11.264Z,2.62
2017-10-27T23:40:38.953Z,1.50
2017-10-27T23:43:06.608Z,1.35
2017-10-27T23:45:34.297Z,1.70
2017-10-27T23:48:02.986Z,1.98
2017-10-27T23:50:31.519Z,1.67
2017-10-27T23:52:59.096Z,1.80
2017-10-27T23:55:26.796Z,1.80
2017-10-27T23:57:55.101Z,1.35
